St. HILARI SACALM (La Selva)





Hora UTC 02:05
Temperatura 7.0 ºC
Suelo 15 cm 5.7 ºC
Humedad 98.0 %
Presión 1013.6 hPa
Pluja 0.2 mm
Velocidad viento 0.3 km/h
Dirección viento NE
Radiación solar 0.1 W/m²

Datos diarios 2024-04-18



Hora UTC (invierno +1h; verano +2h)
Temperatura (ºC) Humedad (%) Presión (hPa) Velocidad viento (km/h) Precipitación (mm) Radiación solar (W/m²)
Hora UTC Aire Suelo 15 cm Humedad Presión Vel. Dir. Vel. Max Dir. Intent. máx 5 min. Rad. Sol.
00:05 7.9 7.8 98.2 1014.4 3.9 SE 3.9 ESE 0.0 0.1
00:10 7.9 7.8 98.1 1014.4 4.6 SE 8.8 SSE 0.0 0.1
00:15 7.9 7.8 98.2 1014.4 2.5 SSE 8.8 S 0.0 0.1
00:20 8.0 7.8 98.3 1014.4 2.4 ESE 6.1 SE 0.0 0.1
00:25 8.0 7.9 98.2 1014.4 1.1 ENE 6.1 ENE 0.1 0.1
00:30 7.9 7.8 98.0 1014.3 2.4 E 6.1 E 0.0 0.1
00:35 7.8 7.7 98.0 1014.2 1.8 E 6.1 E 0.0 0.1
00:40 7.7 7.7 98.1 1014.2 0.0 NNE 0.0 E 0.0 0.1
00:45 7.7 7.7 98.1 1014.2 0.0 NNE 0.0 E 0.0 0.1
00:50 7.6 7.6 98.0 1014.2 0.0 NNE 0.0 ENE 0.0 0.1
00:55 7.6 7.6 98.1 1014.2 0.0 NNE 0.0 N 0.0 0.1
01:00 7.6 7.6 98.1 1014.1 0.0 NNE 0.0 NE 0.1 0.1
01:05 7.7 7.6 98.3 1014.0 0.0 NNE 0.0 ENE 0.0 0.1
01:10 7.7 7.6 98.3 1013.9 0.6 SSE 6.1 SSE 0.0 0.1
01:15 7.7 7.5 98.3 1013.9 1.0 ESE 6.1 ESE 0.0 0.1
01:20 7.6 7.4 98.1 1014.0 0.6 SSW 6.1 SW 0.0 0.1
01:25 7.6 7.3 98.1 1013.9 0.0 NNE 0.0 SSE 0.0 0.1
01:30 7.6 7.2 98.2 1013.8 0.0 S 3.4 S 0.0 0.1
01:35 7.5 7.1 98.1 1013.8 1.7 S 8.8 S 0.0 0.1
01:40 7.4 6.9 98.1 1013.8 1.1 SSE 6.1 SSE 0.0 0.1
01:45 7.3 6.8 98.1 1013.7 2.0 SSE 6.1 SSE 0.0 0.1
01:50 7.3 6.7 98.2 1013.7 3.4 SSE 8.8 SSE 0.0 0.1
01:55 7.3 6.5 98.2 1013.6 2.3 SSE 6.1 SSE 0.0 0.1
02:00 7.2 6.2 98.2 1013.6 0.8 SSE 6.1 SSE 0.0 0.1
02:05 7.0 5.7 98.0 1013.6 0.3 NE 3.4 SSE 0.0 0.1
Máxima 8.0 7.9 98.3 1014.4 4.6 SE 8.8 SSE 0.1 0.1
Mínima 6.9 5.7 98.0 1013.6
Total 0.2